Time;durP1;ratioP1;P1;durP2;ratioP2;P2;SDS_P1;SDS_P2;PMS_P1;PMS_P2;Temp;Humidity;BMP_temperature;BMP_pressure;BME280_temperature;BME280_humidity;BME280_pressure;Samples;Min_cycle;Max_cycle;Signal;HPM_P1;HPM_P2
2024/03/07 00:00:21;;;;;;;19.75;17.67;;;;;;;5.56;62.53;98856.00;5023732;28;20434;-76
2024/03/07 00:02:55;;;;;;;19.70;17.70;;;;;;;5.45;63.39;98842.38;4965308;28;20092;-76
2024/03/07 00:05:37;;;;;;;18.23;16.38;;;;;;;5.44;63.07;98840.72;4989815;28;20117;-76
2024/03/07 00:08:13;;;;;;;18.33;16.52;;;;;;;5.57;63.45;98857.69;5005425;28;20030;-75
2024/03/07 00:10:38;;;;;;;17.92;16.23;;;;;;;5.66;62.72;98850.31;5007721;28;20409;-75
2024/03/07 00:13:12;;;;;;;18.40;16.42;;;;;;;5.65;63.39;98858.53;4985588;28;20030;-76
2024/03/07 00:15:40;;;;;;;18.38;16.48;;;;;;;5.60;62.53;98856.47;4980516;28;20097;-75
2024/03/07 00:18:06;;;;;;;17.92;16.23;;;;;;;5.58;62.86;98840.63;4995399;28;20085;-76
2024/03/07 00:20:35;;;;;;;17.45;15.70;;;;;;;5.70;62.51;98861.44;5000535;28;20061;-75
2024/03/07 00:23:16;;;;;;;17.08;15.30;;;;;;;5.72;62.30;98862.09;5011675;28;20063;-76
2024/03/07 00:25:42;;;;;;;19.38;16.58;;;;;;;5.59;62.76;98855.63;5016696;28;20033;-75
2024/03/07 00:28:08;;;;;;;17.70;15.90;;;;;;;5.52;62.40;98837.91;4996262;28;20109;-75
2024/03/07 00:30:34;;;;;;;17.30;15.63;;;;;;;5.67;62.94;98853.81;5011806;28;20400;-75
2024/03/07 00:33:00;;;;;;;20.42;17.08;;;;;;;5.70;62.59;98856.09;4995422;28;20088;-75
2024/03/07 00:35:27;;;;;;;18.30;16.42;;;;;;;5.72;63.38;98856.75;4977249;28;20033;-75
2024/03/07 00:37:53;;;;;;;18.25;16.52;;;;;;;5.79;62.41;98860.28;5002459;28;20022;-76
2024/03/07 00:40:20;;;;;;;20.35;17.67;;;;;;;5.67;63.85;98829.78;4981231;28;20034;-76
2024/03/07 00:42:46;;;;;;;19.27;17.27;;;;;;;5.67;62.38;98830.56;4978587;28;20030;-76
2024/03/07 00:45:11;;;;;;;18.17;16.27;;;;;;;5.81;63.12;98845.66;5001483;28;20030;-75
2024/03/07 00:47:38;;;;;;;19.58;17.58;;;;;;;5.80;62.98;98835.19;5010082;28;20033;-75
2024/03/07 00:50:05;;;;;;;18.15;16.25;;;;;;;5.82;62.31;98839.31;5014565;28;20030;-75
2024/03/07 00:52:34;;;;;;;18.73;16.83;;;;;;;5.62;61.92;98802.81;5034416;22;20554;-76
2024/03/07 00:55:02;;;;;;;19.58;17.58;;;;;;;5.71;62.27;98831.84;5017174;28;20037;-77
2024/03/07 00:57:29;;;;;;;22.15;19.77;;;;;;;5.74;62.57;98819.94;4999023;28;20096;-78
2024/03/07 00:59:58;;;;;;;20.63;18.58;;;;;;;5.72;63.17;98822.00;5016703;28;20038;-76
2024/03/07 01:02:27;;;;;;;24.10;21.50;;;;;;;5.68;61.43;98840.25;4999122;28;20477;-75
2024/03/07 01:04:54;;;;;;;24.00;21.55;;;;;;;5.74;60.84;98826.09;5020779;28;20061;-75
2024/03/07 01:07:21;;;;;;;23.90;21.50;;;;;;;5.70;61.68;98822.19;5013992;28;20504;-76
2024/03/07 01:09:47;;;;;;;24.13;21.73;;;;;;;5.60;61.79;98813.72;5005421;28;20121;-76
2024/03/07 01:12:13;;;;;;;24.55;22.02;;;;;;;5.45;62.43;98816.50;5014639;28;20033;-76
2024/03/07 01:14:39;;;;;;;24.67;22.02;;;;;;;5.36;62.24;98806.19;4999458;28;20490;-76
2024/03/07 01:17:09;;;;;;;25.70;23.10;;;;;;;5.48;61.43;98821.44;5007487;28;20021;-75
2024/03/07 01:19:34;;;;;;;24.95;22.40;;;;;;;5.46;61.81;98826.16;4998286;28;20030;-76
2024/03/07 01:21:59;;;;;;;24.88;22.20;;;;;;;5.30;62.89;98802.44;5014791;28;20030;-77
2024/03/07 01:24:25;;;;;;;24.67;22.25;;;;;;;5.27;62.84;98810.03;5014607;28;20036;-76
2024/03/07 01:26:51;;;;;;;24.60;22.10;;;;;;;5.24;62.69;98797.06;5013179;28;20065;-77
2024/03/07 01:29:17;;;;;;;25.58;22.98;;;;;;;5.14;63.32;98797.41;4999489;28;20029;-76
2024/03/07 01:31:49;;;;;;;24.60;22.05;;;;;;;5.17;62.87;98807.69;4996038;28;20018;-77
2024/03/07 01:34:19;;;;;;;25.33;22.73;;;;;;;5.21;63.36;98808.13;4997282;28;20041;-77
2024/03/07 01:36:46;;;;;;;26.08;23.38;;;;;;;5.19;63.79;98799.47;4996973;28;20033;-77
2024/03/07 01:39:13;;;;;;;25.48;22.98;;;;;;;5.13;64.15;98795.75;5014207;28;20112;-77
2024/03/07 01:41:40;;;;;;;26.75;23.95;;;;;;;5.21;64.26;98814.28;4997894;28;20042;-76
2024/03/07 01:44:07;;;;;;;24.80;22.35;;;;;;;5.25;63.95;98815.53;4999135;28;20037;-76
2024/03/07 01:46:41;;;;;;;26.00;23.38;;;;;;;5.26;63.63;98806.53;4991805;28;20034;-76
2024/03/07 01:49:08;;;;;;;25.30;22.70;;;;;;;5.19;64.08;98805.66;5008209;28;20120;-77
2024/03/07 01:51:39;;;;;;;24.40;22.00;;;;;;;5.25;64.10;98804.84;5013024;28;20030;-77
2024/03/07 01:54:07;;;;;;;25.15;22.73;;;;;;;5.18;63.63;98793.31;4997772;28;20149;-76
2024/03/07 01:56:34;;;;;;;25.20;22.58;;;;;;;5.31;64.07;98805.94;5014770;28;20025;-77
2024/03/07 01:59:03;;;;;;;26.10;23.33;;;;;;;5.27;64.30;98797.50;4981539;28;20034;-77
2024/03/07 02:01:32;;;;;;;27.13;24.42;;;;;;;5.21;63.80;98797.44;5013466;28;20045;-76
2024/03/07 02:03:59;;;;;;;28.52;24.80;;;;;;;5.18;63.06;98790.63;4998061;28;20100;-76
2024/03/07 02:06:26;;;;;;;26.88;24.08;;;;;;;5.08;63.33;98776.84;4996954;28;20038;-76
2024/03/07 02:08:55;;;;;;;27.60;24.88;;;;;;;4.94;63.33;98783.09;4994881;28;20025;-75
2024/03/07 02:11:20;;;;;;;27.45;24.52;;;;;;;4.87;63.68;98779.56;5006074;28;20042;-75
2024/03/07 02:13:46;;;;;;;27.23;24.20;;;;;;;4.83;64.06;98778.31;5024326;28;20434;-75
2024/03/07 02:16:15;;;;;;;28.33;25.35;;;;;;;4.90;64.22;98795.19;5000116;28;20026;-76
2024/03/07 02:18:46;;;;;;;27.17;24.48;;;;;;;4.83;64.58;98795.09;5013259;28;20518;-76
2024/03/07 02:21:14;;;;;;;29.73;26.13;;;;;;;4.83;64.78;98788.97;5007061;28;20038;-75
2024/03/07 02:23:44;;;;;;;27.90;25.02;;;;;;;4.79;64.33;98774.34;4994835;28;20026;-76
2024/03/07 02:26:11;;;;;;;26.40;23.73;;;;;;;4.73;64.34;98772.47;4987994;28;20045;-75
2024/03/07 02:28:40;;;;;;;28.10;25.13;;;;;;;4.70;64.43;98772.84;5014393;28;20443;-76
2024/03/07 02:31:07;;;;;;;27.52;24.63;;;;;;;4.75;64.44;98781.94;5019812;28;20079;-75
2024/03/07 02:33:37;;;;;;;27.45;24.50;;;;;;;4.66;63.62;98760.91;4998512;28;20033;-75
2024/03/07 02:36:26;;;;;;;27.55;24.55;;;;;;;4.68;64.70;98772.22;5000276;28;20048;-76
2024/03/07 02:38:57;;;;;;;27.77;24.98;;;;;;;4.50;64.46;98763.84;5015738;28;20548;-76
2024/03/07 02:41:24;;;;;;;27.58;24.63;;;;;;;4.58;64.83;98777.03;5017970;28;20105;-76
2024/03/07 02:43:51;;;;;;;27.55;24.67;;;;;;;4.54;64.89;98778.44;5003337;28;20083;-75
2024/03/07 02:46:21;;;;;;;27.27;24.42;;;;;;;4.38;64.99;98768.03;5018478;28;20401;-75
2024/03/07 02:48:50;;;;;;;27.42;24.60;;;;;;;4.26;64.99;98758.91;5023066;28;20040;-75
2024/03/07 02:51:16;;;;;;;26.83;23.70;;;;;;;4.16;65.99;98754.72;5000938;28;20067;-75
2024/03/07 02:53:42;;;;;;;26.48;23.60;;;;;;;4.11;66.61;98765.13;5004072;28;20033;-75
2024/03/07 02:56:18;;;;;;;25.75;22.75;;;;;;;4.00;66.07;98749.63;4987501;28;20034;-75
2024/03/07 02:58:52;;;;;;;25.63;22.67;;;;;;;4.08;66.59;98765.47;4998900;28;20129;-75
2024/03/07 03:01:19;;;;;;;24.42;21.77;;;;;;;4.06;66.50;98775.50;5026797;28;20088;-77
2024/03/07 03:03:50;;;;;;;24.90;22.30;;;;;;;4.07;66.47;98771.84;5020923;28;20026;-77
2024/03/07 03:06:16;;;;;;;25.15;22.38;;;;;;;3.98;66.79;98762.31;5001400;28;20042;-76
2024/03/07 03:08:42;;;;;;;23.70;21.35;;;;;;;4.00;66.90;98776.28;4994560;28;20023;-77
2024/03/07 03:11:09;;;;;;;26.00;22.63;;;;;;;4.00;66.76;98768.28;5001997;28;20053;-76
2024/03/07 03:13:41;;;;;;;24.15;21.65;;;;;;;4.00;66.60;98773.63;5001870;28;20148;-76
2024/03/07 03:16:17;;;;;;;24.02;21.23;;;;;;;4.00;66.67;98770.94;5026106;28;20045;-76
2024/03/07 03:18:44;;;;;;;23.95;21.45;;;;;;;3.97;66.73;98762.50;5015074;28;20041;-75
2024/03/07 03:21:13;;;;;;;23.50;20.92;;;;;;;3.97;66.48;98771.31;5016209;28;20038;-75
2024/03/07 03:23:55;;;;;;;23.10;20.67;;;;;;;3.93;66.42;98770.06;4997069;28;20054;-74
2024/03/07 03:26:28;;;;;;;22.98;20.48;;;;;;;3.66;66.93;98736.16;4978611;28;20280;-74
2024/03/07 03:28:54;;;;;;;24.15;21.00;;;;;;;3.85;66.99;98766.69;5001957;28;20034;-76
2024/03/07 03:31:20;;;;;;;24.15;21.55;;;;;;;3.80;66.72;98769.91;5002337;28;20524;-76
2024/03/07 03:33:52;;;;;;;24.30;20.17;;;;;;;3.83;66.56;98774.84;5016844;28;20042;-76
2024/03/07 03:36:24;;;;;;;22.88;20.40;;;;;;;3.76;66.81;98770.44;5019431;28;20037;-76
2024/03/07 03:38:51;;;;;;;23.38;20.95;;;;;;;3.67;66.86;98764.41;5001785;28;20125;-76
2024/03/07 03:41:20;;;;;;;21.75;19.23;;;;;;;3.63;66.73;98762.31;5018121;28;20500;-76
2024/03/07 03:43:49;;;;;;;21.38;19.20;;;;;;;3.71;66.78;98771.00;5020397;28;20033;-76
2024/03/07 03:46:21;;;;;;;21.40;19.10;;;;;;;3.66;66.94;98768.09;5001690;28;20042;-76
2024/03/07 03:48:50;;;;;;;22.65;20.13;;;;;;;3.71;66.83;98773.66;5016768;28;20033;-77
2024/03/07 03:51:17;;;;;;;22.48;20.10;;;;;;;3.50;66.63;98747.00;5001079;28;20042;-76
2024/03/07 03:53:47;;;;;;;24.02;20.58;;;;;;;3.48;66.47;98752.50;4996272;28;20538;-76
2024/03/07 03:56:15;;;;;;;24.10;20.05;;;;;;;3.42;66.54;98757.75;5014340;28;20033;-77
2024/03/07 03:58:41;;;;;;;22.17;19.85;;;;;;;3.31;67.03;98760.88;5017613;28;20026;-76
2024/03/07 04:01:12;;;;;;;21.88;19.02;;;;;;;3.37;67.67;98768.13;5008655;28;20041;-76
2024/03/07 04:03:40;;;;;;;22.25;19.88;;;;;;;3.30;67.38;98759.22;5022653;28;20045;-76
2024/03/07 04:06:07;;;;;;;22.85;20.33;;;;;;;3.25;67.07;98756.28;5009503;28;20057;-77
2024/03/07 04:08:36;;;;;;;24.23;20.40;;;;;;;3.30;67.73;98777.84;5003921;28;20036;-76
2024/03/07 04:11:03;;;;;;;23.23;19.60;;;;;;;2.76;67.66;98674.38;5016328;28;20362;-76
2024/03/07 04:13:31;;;;;;;22.48;19.92;;;;;;;3.27;67.54;98771.06;5016735;28;20042;-76
2024/03/07 04:15:59;;;;;;;23.15;20.00;;;;;;;3.27;67.45;98763.06;5017157;28;20025;-76
2024/03/07 04:18:34;;;;;;;24.20;19.70;;;;;;;3.12;67.74;98737.50;5017584;28;20045;-76
2024/03/07 04:21:00;;;;;;;22.92;19.60;;;;;;;3.15;67.28;98758.41;5023247;28;20045;-77
2024/03/07 04:23:26;;;;;;;23.27;20.50;;;;;;;3.22;68.33;98775.31;4998724;28;20026;-77
2024/03/07 04:25:56;;;;;;;23.40;19.92;;;;;;;3.18;68.02;98766.84;5002695;28;20033;-77
2024/03/07 04:28:23;;;;;;;24.38;21.38;;;;;;;3.11;68.83;98757.09;5001353;28;20452;-76
2024/03/07 04:30:53;;;;;;;25.15;21.38;;;;;;;2.97;69.34;98745.47;5002243;23;20494;-77
2024/03/07 04:33:23;;;;;;;25.85;21.63;;;;;;;3.03;69.97;98759.88;4983652;28;20552;-77
2024/03/07 04:35:52;;;;;;;23.38;20.50;;;;;;;2.96;69.83;98748.31;4983683;28;20035;-77
2024/03/07 04:38:20;;;;;;;25.00;21.17;;;;;;;2.90;69.65;98739.22;4970502;28;20054;-76
2024/03/07 04:40:47;;;;;;;25.38;21.88;;;;;;;3.01;69.51;98764.56;4964238;28;20054;-75
2024/03/07 04:43:15;;;;;;;24.05;21.08;;;;;;;3.04;69.55;98772.16;4965628;28;20039;-76
2024/03/07 04:45:52;;;;;;;25.55;22.58;;;;;;;2.73;70.01;98717.28;4978089;28;20114;-76
2024/03/07 04:48:19;;;;;;;24.60;20.75;;;;;;;2.92;69.74;98750.50;4968226;28;20038;-78
2024/03/07 04:50:44;;;;;;;24.42;21.50;;;;;;;2.85;69.53;98754.09;4972249;28;20024;-76
2024/03/07 04:53:10;;;;;;;23.90;20.52;;;;;;;2.69;69.96;98737.28;4966452;28;20035;-76
2024/03/07 04:55:35;;;;;;;23.88;20.20;;;;;;;2.83;69.91;98766.72;4959405;29;20059;-76
2024/03/07 04:58:01;;;;;;;23.08;20.20;;;;;;;2.65;70.38;98741.31;4942978;29;20046;-77
2024/03/07 05:00:26;;;;;;;23.38;19.95;;;;;;;2.77;70.60;98755.81;4979283;28;20027;-76
2024/03/07 05:02:52;;;;;;;23.58;20.95;;;;;;;2.77;70.19;98755.81;4975052;28;20043;-76
2024/03/07 05:05:21;;;;;;;24.05;21.00;;;;;;;2.80;69.80;98755.44;4974610;28;20024;-76
2024/03/07 05:07:49;;;;;;;30.10;26.27;;;;;;;2.63;69.82;98731.84;4959854;28;20094;-76
2024/03/07 05:10:15;;;;;;;25.40;22.75;;;;;;;2.83;69.57;98767.53;4959612;28;20495;-76
2024/03/07 05:12:40;;;;;;;25.58;22.88;;;;;;;2.79;69.83;98769.75;4959227;28;20079;-76
2024/03/07 05:15:09;;;;;;;25.23;22.63;;;;;;;2.76;70.10;98770.13;4946514;29;20118;-76
2024/03/07 05:17:37;;;;;;;37.72;34.28;;;;;;;2.65;70.54;98757.25;4971306;28;20078;-77
2024/03/07 05:20:09;;;;;;;30.83;27.70;;;;;;;2.70;70.52;98770.00;4963470;28;20042;-77
2024/03/07 05:22:50;;;;;;;30.05;27.05;;;;;;;2.66;69.79;98758.09;4954148;29;20042;-76
2024/03/07 05:25:18;;;;;;;27.23;24.52;;;;;;;2.64;70.19;98752.09;4960713;28;20535;-76
2024/03/07 05:27:44;;;;;;;27.05;24.25;;;;;;;2.56;70.42;98742.41;4961349;28;20377;-76
2024/03/07 05:30:11;;;;;;;28.98;22.90;;;;;;;2.62;70.12;98757.63;4945539;29;20121;-76
2024/03/07 05:32:37;;;;;;;28.05;25.00;;;;;;;2.60;70.36;98754.31;4956662;29;20098;-75
2024/03/07 05:35:03;;;;;;;25.80;22.00;;;;;;;2.46;71.28;98751.63;4955582;29;20031;-76
2024/03/07 05:37:28;;;;;;;25.73;22.77;;;;;;;2.43;71.10;98747.47;4970499;28;20032;-76
2024/03/07 05:39:55;;;;;;;24.95;21.75;;;;;;;2.37;71.03;98736.75;4972802;28;20035;-76
2024/03/07 05:42:21;;;;;;;24.20;21.50;;;;;;;2.51;71.17;98754.56;4956672;28;20023;-76
2024/03/07 05:44:47;;;;;;;24.48;21.63;;;;;;;2.42;71.26;98737.88;4958234;28;20038;-75
2024/03/07 05:47:13;;;;;;;24.58;21.90;;;;;;;2.53;70.71;98758.69;4954230;28;20019;-75
2024/03/07 05:49:39;;;;;;;27.58;22.85;;;;;;;2.44;70.98;98749.16;4979031;28;20054;-75
2024/03/07 05:52:05;;;;;;;26.17;23.38;;;;;;;2.37;70.76;98752.69;4975953;28;20027;-76
2024/03/07 05:54:32;;;;;;;27.10;23.58;;;;;;;2.32;71.87;98745.25;4944799;28;20566;-76
2024/03/07 05:56:57;;;;;;;28.77;24.88;;;;;;;2.37;71.88;98753.53;4952808;29;20038;-76
2024/03/07 05:59:22;;;;;;;26.60;23.67;;;;;;;2.44;71.87;98754.47;4957782;28;20043;-76
2024/03/07 06:01:48;;;;;;;25.95;23.15;;;;;;;2.41;71.46;98752.16;4937042;29;20109;-75
2024/03/07 06:04:15;;;;;;;30.73;25.05;;;;;;;2.50;71.62;98759.03;4957349;28;20031;-75
2024/03/07 06:06:41;;;;;;;26.83;23.33;;;;;;;2.44;71.41;98748.31;4953843;28;20034;-76
2024/03/07 06:09:08;;;;;;;25.88;22.90;;;;;;;2.60;72.17;98758.81;4950707;28;20504;-76
2024/03/07 06:11:38;;;;;;;26.33;23.58;;;;;;;2.45;71.57;98734.03;4955118;28;20054;-77
2024/03/07 06:14:05;;;;;;;25.40;22.58;;;;;;;2.66;71.20;98763.41;4954356;29;20632;-76
2024/03/07 06:16:34;;;;;;;28.63;23.50;;;;;;;2.55;71.52;98746.03;4949269;28;20113;-76
2024/03/07 06:19:01;;;;;;;29.83;24.60;;;;;;;2.67;71.23;98765.88;4959873;28;20039;-75
2024/03/07 06:21:27;;;;;;;29.05;23.88;;;;;;;2.66;72.02;98750.13;4973641;28;20054;-75
2024/03/07 06:23:59;;;;;;;26.92;22.98;;;;;;;2.72;71.30;98742.25;4968802;28;20110;-76
2024/03/07 06:26:37;;;;;;;28.95;24.80;;;;;;;2.74;71.58;98748.19;4966688;28;20061;-75
2024/03/07 06:29:05;;;;;;;30.73;24.98;;;;;;;2.85;71.91;98748.78;4967391;28;20490;-75
2024/03/07 06:31:31;;;;;;;26.98;23.20;;;;;;;2.98;72.18;98756.94;4943368;28;20462;-76
2024/03/07 06:33:57;;;;;;;27.13;24.23;;;;;;;3.05;71.90;98763.19;4953666;28;20041;-76
2024/03/07 06:36:23;;;;;;;31.80;25.60;;;;;;;2.98;72.04;98740.97;4952478;29;20027;-76
2024/03/07 06:38:49;;;;;;;34.88;26.98;;;;;;;3.11;71.80;98762.44;4949372;28;20131;-76
2024/03/07 06:41:14;;;;;;;29.55;25.10;;;;;;;3.16;72.22;98760.06;4950411;29;20023;-76
2024/03/07 06:43:39;;;;;;;32.08;24.13;;;;;;;3.29;72.40;98761.06;4952382;29;20036;-76
2024/03/07 06:46:06;;;;;;;28.48;24.50;;;;;;;3.27;71.48;98741.78;4974694;28;20027;-76
2024/03/07 06:48:31;;;;;;;28.45;25.35;;;;;;;3.43;71.75;98748.78;4953202;28;20041;-77
2024/03/07 06:50:57;;;;;;;30.42;25.08;;;;;;;3.23;71.18;98713.06;4953627;28;20551;-77
2024/03/07 06:53:26;;;;;;;31.08;26.25;;;;;;;3.52;71.27;98750.31;4951869;28;20046;-77
2024/03/07 06:55:53;;;;;;;29.77;25.40;;;;;;;3.67;71.62;98755.59;4952424;29;20035;-77
2024/03/07 06:58:20;;;;;;;27.98;24.95;;;;;;;3.76;71.42;98763.28;4955827;28;20402;-77
2024/03/07 07:00:45;;;;;;;31.75;27.23;;;;;;;3.72;71.59;98751.38;4976092;28;20024;-76
2024/03/07 07:03:12;;;;;;;29.63;24.98;;;;;;;3.80;71.57;98756.59;4950163;28;20059;-77
2024/03/07 07:05:40;;;;;;;30.88;25.95;;;;;;;3.68;71.63;98725.28;4952204;28;20027;-77
2024/03/07 07:08:06;;;;;;;32.58;28.00;;;;;;;3.93;71.92;98754.06;4964761;28;20592;-76
2024/03/07 07:10:32;;;;;;;34.70;28.52;;;;;;;4.10;71.80;98770.66;4975461;28;20039;-77
2024/03/07 07:12:57;;;;;;;32.90;28.08;;;;;;;4.04;72.46;98761.56;4948630;29;20043;-77
2024/03/07 07:15:23;;;;;;;34.28;28.08;;;;;;;3.99;71.78;98742.63;4967682;28;20075;-77
2024/03/07 07:17:48;;;;;;;36.72;29.58;;;;;;;4.14;72.58;98762.09;4956344;28;20719;-77
2024/03/07 07:20:17;;;;;;;35.78;29.25;;;;;;;4.19;72.38;98748.19;4939084;29;20031;-76
2024/03/07 07:22:46;;;;;;;35.35;29.55;;;;;;;4.34;72.57;98756.94;4952021;28;20054;-77
2024/03/07 07:25:15;;;;;;;37.58;30.48;;;;;;;4.44;72.83;98759.28;4971588;28;20034;-76
2024/03/07 07:27:48;;;;;;;37.83;30.67;;;;;;;4.49;73.37;98754.19;4956049;29;20039;-77
2024/03/07 07:30:18;;;;;;;40.05;31.00;;;;;;;4.59;73.57;98760.03;4971463;28;20039;-75
2024/03/07 07:32:45;;;;;;;41.20;32.08;;;;;;;4.59;73.69;98744.88;4934734;29;20035;-75
2024/03/07 07:35:11;;;;;;;42.50;33.05;;;;;;;4.78;73.93;98754.03;4955462;28;20044;-76
2024/03/07 07:37:41;;;;;;;39.08;31.30;;;;;;;4.84;74.35;98756.75;4926916;29;20158;-76
2024/03/07 07:40:14;;;;;;;36.65;31.15;;;;;;;4.91;73.83;98762.13;4961880;28;20066;-76
2024/03/07 07:42:41;;;;;;;38.35;31.45;;;;;;;4.95;74.09;98738.56;4950969;29;20035;-76
2024/03/07 07:45:11;;;;;;;37.45;30.23;;;;;;;5.18;73.85;98749.78;4972002;28;20610;-76
2024/03/07 07:47:41;;;;;;;37.00;30.33;;;;;;;5.28;73.66;98734.22;4962994;28;20066;-76
2024/03/07 07:50:17;;;;;;;37.33;30.23;;;;;;;5.46;72.08;98748.69;4955244;29;20499;-76
2024/03/07 07:52:53;;;;;;;35.80;28.67;;;;;;;5.65;71.93;98754.34;4948989;29;20087;-76
2024/03/07 07:55:28;;;;;;;34.28;28.50;;;;;;;5.67;72.86;98733.59;4938915;29;20039;-76
2024/03/07 07:57:58;;;;;;;36.25;29.13;;;;;;;5.93;72.61;98744.38;4955212;29;20382;-76
2024/03/07 08:00:25;;;;;;;35.78;28.55;;;;;;;5.87;72.21;98721.97;4973107;28;20031;-76
2024/03/07 08:02:58;;;;;;;33.20;26.02;;;;;;;6.12;71.78;98743.59;4954521;29;20031;-76
2024/03/07 08:05:25;;;;;;;32.80;25.90;;;;;;;6.23;71.24;98745.72;4970980;28;20031;-76
2024/03/07 08:07:51;;;;;;;30.48;25.77;;;;;;;6.29;70.51;98747.56;4954765;29;20027;-76
2024/03/07 08:10:23;;;;;;;29.90;24.90;;;;;;;6.32;70.47;98723.09;4938492;29;20102;-76
2024/03/07 08:12:49;;;;;;;26.42;22.08;;;;;;;6.51;69.30;98732.97;4954697;29;20055;-76
2024/03/07 08:15:15;;;;;;;26.73;21.77;;;;;;;6.55;69.88;98728.03;4954878;28;20027;-76
2024/03/07 08:17:42;;;;;;;29.08;23.52;;;;;;;6.64;69.67;98732.97;4955358;29;20046;-76
2024/03/07 08:20:11;;;;;;;27.55;22.90;;;;;;;6.74;69.54;98733.41;4954697;28;20115;-76
2024/03/07 08:22:38;;;;;;;28.10;23.13;;;;;;;6.58;68.96;98723.06;4967237;28;20037;-76
2024/03/07 08:25:08;;;;;;;27.40;22.92;;;;;;;6.68;68.84;98728.03;4954148;29;20111;-75
2024/03/07 08:27:36;;;;;;;26.17;22.23;;;;;;;6.76;68.86;98719.78;4970258;28;20039;-75
2024/03/07 08:30:02;;;;;;;26.38;21.40;;;;;;;6.79;67.69;98720.19;4954515;29;20031;-75
2024/03/07 08:32:27;;;;;;;24.42;21.00;;;;;;;6.90;68.00;98732.97;4955043;29;20043;-76
2024/03/07 08:34:53;;;;;;;23.75;20.05;;;;;;;6.81;67.46;98709.28;4954037;28;20027;-76
2024/03/07 08:37:18;;;;;;;24.55;20.73;;;;;;;6.92;67.21;98736.25;4955551;28;20487;-75
2024/03/07 08:39:44;;;;;;;25.55;20.75;;;;;;;6.95;65.71;98729.66;4954262;29;20029;-75
2024/03/07 08:42:09;;;;;;;22.13;19.65;;;;;;;6.88;66.21;98708.22;4973236;28;20030;-75
2024/03/07 08:44:34;;;;;;;22.42;18.90;;;;;;;6.93;65.99;98710.31;4969317;28;20031;-76
2024/03/07 08:47:00;;;;;;;22.27;19.48;;;;;;;7.02;65.85;98719.78;4949943;29;20643;-76
2024/03/07 08:49:25;;;;;;;24.38;20.13;;;;;;;7.03;66.47;98688.44;4968186;28;20019;-76
2024/03/07 08:51:50;;;;;;;26.02;21.50;;;;;;;7.29;66.05;98704.44;4949405;28;20039;-76
2024/03/07 08:54:16;;;;;;;24.70;20.95;;;;;;;7.21;65.17;98697.44;4969640;28;20134;-76
2024/03/07 08:56:41;;;;;;;23.90;19.52;;;;;;;7.18;65.24;98708.59;4959081;28;20038;-76
2024/03/07 08:59:06;;;;;;;22.25;19.38;;;;;;;7.38;64.77;98719.25;4955600;28;20487;-76
2024/03/07 09:01:32;;;;;;;22.90;19.55;;;;;;;7.33;64.99;98700.28;4970107;28;20098;-76
2024/03/07 09:03:59;;;;;;;23.65;19.92;;;;;;;7.46;64.81;98711.00;4970303;28;20090;-76
2024/03/07 09:06:24;;;;;;;21.25;18.90;;;;;;;7.50;65.02;98701.47;4927151;28;20387;-76
2024/03/07 09:08:50;;;;;;;20.20;17.95;;;;;;;7.51;65.14;98706.63;4954097;29;20078;-76
2024/03/07 09:11:15;;;;;;;21.65;17.95;;;;;;;7.67;65.24;98713.38;4953796;29;20046;-76
2024/03/07 09:13:41;;;;;;;19.15;17.15;;;;;;;7.73;64.20;98707.16;4953478;29;20035;-76
2024/03/07 09:16:07;;;;;;;21.50;17.77;;;;;;;7.66;63.68;98692.97;4937819;28;20031;-76
2024/03/07 09:18:32;;;;;;;20.25;17.63;;;;;;;7.68;63.57;98688.19;4938680;29;20401;-76
2024/03/07 09:20:58;;;;;;;19.05;16.02;;;;;;;7.74;63.55;98691.91;4956380;28;20035;-76
2024/03/07 09:23:23;;;;;;;20.17;17.05;;;;;;;7.66;62.56;98676.88;4955410;29;20114;-76
2024/03/07 09:25:48;;;;;;;19.38;16.42;;;;;;;7.73;62.50;98693.75;4969921;28;20051;-76
2024/03/07 09:28:15;;;;;;;22.60;17.55;;;;;;;7.73;62.70;98691.06;4937985;29;20038;-76
2024/03/07 09:30:40;;;;;;;21.80;18.10;;;;;;;7.75;62.43;98678.25;4953627;29;20062;-76
2024/03/07 09:33:10;;;;;;;21.60;17.17;;;;;;;7.83;61.65;98688.75;4955094;28;20061;-76
2024/03/07 09:35:37;;;;;;;22.38;18.02;;;;;;;7.78;62.07;98677.84;4953808;29;20046;-76
2024/03/07 09:38:03;;;;;;;24.25;18.50;;;;;;;7.93;62.22;98694.47;4953534;28;20030;-77
2024/03/07 09:40:28;;;;;;;22.40;18.20;;;;;;;8.04;61.39;98699.16;4975886;28;20623;-77
2024/03/07 09:42:56;;;;;;;21.20;17.80;;;;;;;8.04;62.28;98687.59;4954479;29;20027;-77
2024/03/07 09:45:22;;;;;;;23.45;18.42;;;;;;;8.07;61.30;98687.16;4954660;28;20403;-75
2024/03/07 09:47:49;;;;;;;21.85;17.15;;;;;;;8.06;61.19;98685.50;4970182;28;20099;-76
2024/03/07 09:50:23;;;;;;;21.70;17.45;;;;;;;8.10;60.76;98697.44;4951856;29;20032;-75
2024/03/07 09:52:49;;;;;;;22.33;17.60;;;;;;;8.20;61.22;98697.81;4938539;29;20054;-75
2024/03/07 09:55:19;;;;;;;22.60;17.60;;;;;;;8.11;61.32;98683.84;4955435;28;20490;-75
2024/03/07 09:57:48;;;;;;;20.50;17.85;;;;;;;8.27;61.09;98688.72;4954838;28;20032;-76
2024/03/07 10:00:23;;;;;;;18.65;15.95;;;;;;;8.39;60.66;98696.03;4970009;28;20112;-76
2024/03/07 10:03:02;;;;;;;19.30;15.52;;;;;;;8.48;59.82;98694.72;4942634;29;20046;-75
2024/03/07 10:05:28;;;;;;;18.17;14.98;;;;;;;8.52;59.19;98679.84;4972962;28;20050;-75
2024/03/07 10:07:53;;;;;;;19.90;15.63;;;;;;;8.62;57.99;98685.53;4958339;28;20023;-75
2024/03/07 10:10:19;;;;;;;19.58;15.95;;;;;;;8.73;58.27;98698.22;4958780;28;20042;-75
2024/03/07 10:12:45;;;;;;;19.63;15.20;;;;;;;8.71;57.50;98684.22;4955541;28;20027;-76
2024/03/07 10:15:12;;;;;;;19.40;15.52;;;;;;;8.73;57.57;98676.75;4968931;28;20120;-75
2024/03/07 10:17:38;;;;;;;21.73;16.45;;;;;;;8.71;58.14;98668.09;4964761;28;20033;-76
2024/03/07 10:20:09;;;;;;;21.80;16.00;;;;;;;8.73;58.34;98674.06;4952747;29;20473;-76
2024/03/07 10:22:36;;;;;;;18.40;15.38;;;;;;;8.73;58.34;98672.22;4968324;28;20083;-75
2024/03/07 10:25:03;;;;;;;22.35;16.60;;;;;;;8.77;58.76;98672.59;4936654;29;20431;-76
2024/03/07 10:27:31;;;;;;;18.83;15.55;;;;;;;8.82;58.87;98691.56;4952225;28;20036;-80
2024/03/07 10:29:57;;;;;;;18.48;15.52;;;;;;;8.61;58.83;98679.34;4952711;29;20110;-76
2024/03/07 10:32:23;;;;;;;19.23;15.45;;;;;;;8.54;58.91;98691.19;4993152;23;20121;-76
2024/03/07 10:34:50;;;;;;;18.83;15.85;;;;;;;8.32;58.60;98678.16;4991100;28;20029;-76
2024/03/07 10:37:16;;;;;;;18.75;16.33;;;;;;;8.42;60.16;98690.25;4974770;28;20374;-76
2024/03/07 10:39:45;;;;;;;18.75;15.95;;;;;;;8.25;60.19;98669.28;4974760;28;20121;-76
2024/03/07 10:42:15;;;;;;;18.00;15.30;;;;;;;8.28;58.92;98684.16;4955174;28;20093;-76
2024/03/07 10:44:44;;;;;;;17.52;13.98;;;;;;;8.08;58.74;98662.81;4963129;28;20058;-76
2024/03/07 10:47:14;;;;;;;17.23;13.52;;;;;;;8.22;58.96;98685.81;4990981;28;20390;-76
2024/03/07 10:49:48;;;;;;;16.85;14.05;;;;;;;8.13;58.48;98671.03;4958777;28;20039;-76
2024/03/07 10:52:20;;;;;;;15.15;13.00;;;;;;;8.25;57.00;98684.56;4962599;28;20042;-76
2024/03/07 10:54:55;;;;;;;14.60;12.63;;;;;;;8.24;57.72;98683.72;4970818;28;20509;-77
2024/03/07 10:57:26;;;;;;;16.48;13.20;;;;;;;8.34;56.86;98676.06;4955304;28;20042;-75
2024/03/07 10:59:57;;;;;;;15.25;12.10;;;;;;;8.32;55.96;98680.84;4970689;28;20035;-76
2024/03/07 11:02:24;;;;;;;14.18;12.68;;;;;;;8.32;55.93;98674.63;4958850;28;20035;-76
2024/03/07 11:04:51;;;;;;;16.67;11.88;;;;;;;8.19;55.36;98662.09;4975076;28;20592;-76
2024/03/07 11:07:18;;;;;;;13.13;11.52;;;;;;;8.14;54.86;98655.75;4959298;28;20089;-76
2024/03/07 11:09:46;;;;;;;15.95;13.00;;;;;;;8.25;56.45;98666.59;4958871;28;20029;-76
2024/03/07 11:12:12;;;;;;;15.23;12.80;;;;;;;8.10;55.00;98639.25;4975205;28;20042;-76
2024/03/07 11:14:38;;;;;;;16.42;13.38;;;;;;;8.13;55.66;98644.19;4975154;28;20022;-76
2024/03/07 11:17:03;;;;;;;15.07;12.52;;;;;;;8.25;55.58;98647.81;4951288;28;20066;-76
2024/03/07 11:19:36;;;;;;;15.35;13.13;;;;;;;8.39;56.52;98653.09;4963843;28;20030;-76
2024/03/07 11:22:02;;;;;;;18.23;13.73;;;;;;;8.54;56.27;98661.66;4958972;28;20046;-76
2024/03/07 11:24:29;;;;;;;18.73;14.20;;;;;;;8.58;55.61;98662.88;4974952;28;20038;-76
2024/03/07 11:26:55;;;;;;;17.35;13.65;;;;;;;8.49;55.50;98637.34;4990790;28;20070;-76